createdAt,value
2022-11-05T00:00:07.999Z,22.30
2022-11-05T00:01:11.672Z,22.33
2022-11-05T00:02:15.304Z,22.33
2022-11-05T00:03:18.879Z,22.33
2022-11-05T00:04:25.571Z,22.33
2022-11-05T00:05:25.900Z,22.33
2022-11-05T00:06:29.444Z,22.30
2022-11-05T00:07:32.987Z,22.33
2022-11-05T00:08:36.655Z,22.33
2022-11-05T00:09:40.255Z,22.33
2022-11-05T00:10:43.782Z,22.33
2022-11-05T00:11:47.423Z,22.31
2022-11-05T00:12:51.038Z,22.31
2022-11-05T00:13:54.545Z,22.33
2022-11-05T00:14:58.168Z,22.33
2022-11-05T00:16:01.783Z,22.35
2022-11-05T00:17:05.286Z,22.33
2022-11-05T00:18:08.906Z,22.31
2022-11-05T00:19:12.556Z,22.33
2022-11-05T00:20:16.091Z,22.31
2022-11-05T00:21:19.668Z,22.33
2022-11-05T00:22:23.320Z,22.31
2022-11-05T00:23:26.952Z,22.30
2022-11-05T00:24:30.518Z,22.30
2022-11-05T00:25:34.153Z,22.30
2022-11-05T00:26:37.724Z,22.31
2022-11-05T00:27:41.239Z,22.33
2022-11-05T00:28:44.901Z,22.30
2022-11-05T00:29:48.496Z,22.30
2022-11-05T00:30:52.010Z,22.33
2022-11-05T00:31:55.631Z,22.30
2022-11-05T00:32:59.289Z,22.31
2022-11-05T00:34:02.846Z,22.31
2022-11-05T00:35:06.453Z,22.33
2022-11-05T00:36:10.077Z,22.33
2022-11-05T00:37:13.603Z,22.35
2022-11-05T00:38:17.245Z,22.33
2022-11-05T00:39:20.917Z,22.36
2022-11-05T00:40:24.507Z,22.35
2022-11-05T00:41:28.037Z,22.35
2022-11-05T00:42:31.710Z,22.35
2022-11-05T00:43:35.310Z,22.35
2022-11-05T00:44:38.822Z,22.35
2022-11-05T00:45:42.428Z,22.37
2022-11-05T00:46:46.081Z,22.35
2022-11-05T00:47:49.620Z,22.33
2022-11-05T00:48:53.169Z,22.35
2022-11-05T00:49:56.833Z,22.31
2022-11-05T00:51:00.448Z,22.35
2022-11-05T00:52:03.941Z,22.33
2022-11-05T00:53:07.639Z,22.35
2022-11-05T00:54:11.380Z,22.35
2022-11-05T00:55:14.945Z,22.33
2022-11-05T00:56:19.067Z,22.35
2022-11-05T00:57:22.641Z,22.33
2022-11-05T00:58:26.308Z,22.35
2022-11-05T00:59:29.879Z,22.35
2022-11-05T01:00:33.429Z,22.36
2022-11-05T01:01:37.201Z,22.33
2022-11-05T01:05:21.123Z,22.30
2022-11-05T01:05:24.193Z,22.31
2022-11-05T01:06:27.799Z,22.30
2022-11-05T01:07:31.299Z,22.35
2022-11-05T01:08:34.926Z,22.30
2022-11-05T01:09:38.567Z,22.33
2022-11-05T01:10:42.095Z,22.33
2022-11-05T01:11:45.706Z,22.35
2022-11-05T01:12:49.337Z,22.36
2022-11-05T01:13:52.929Z,22.35
2022-11-05T01:14:56.424Z,22.33
2022-11-05T01:16:00.027Z,22.33
2022-11-05T01:17:03.670Z,22.31
2022-11-05T01:18:07.231Z,22.33
2022-11-05T01:19:10.851Z,22.36
2022-11-05T01:20:14.515Z,22.33
2022-11-05T01:21:18.100Z,22.33
2022-11-05T01:22:21.638Z,22.35
2022-11-05T01:23:25.278Z,22.33
2022-11-05T01:24:28.872Z,22.33
2022-11-05T01:25:32.364Z,22.33
2022-11-05T01:26:35.957Z,22.33
2022-11-05T01:27:39.629Z,22.31
2022-11-05T01:28:43.176Z,22.35
2022-11-05T01:29:46.771Z,22.35
2022-11-05T01:30:50.396Z,22.36
2022-11-05T01:31:53.955Z,22.33
2022-11-05T01:32:57.496Z,22.37
2022-11-05T01:34:01.121Z,22.35
2022-11-05T01:35:04.723Z,22.33
2022-11-05T01:36:08.241Z,22.35
2022-11-05T01:37:11.924Z,22.31
2022-11-05T01:38:15.673Z,22.37
2022-11-05T01:39:19.231Z,22.37
2022-11-05T01:40:22.747Z,22.36
2022-11-05T01:41:26.349Z,22.37
2022-11-05T01:42:29.994Z,22.39
2022-11-05T01:43:33.581Z,22.39
2022-11-05T01:44:37.211Z,22.39
2022-11-05T01:45:40.839Z,22.37
2022-11-05T01:46:44.430Z,22.40
2022-11-05T01:47:47.949Z,22.37
2022-11-05T01:48:51.559Z,22.39
2022-11-05T01:49:55.154Z,22.39
2022-11-05T01:50:58.684Z,22.39
2022-11-05T01:52:02.307Z,22.40
2022-11-05T01:53:05.993Z,22.39
2022-11-05T01:54:09.585Z,22.40
2022-11-05T01:55:13.183Z,22.42
2022-11-05T01:56:16.849Z,22.42
2022-11-05T01:57:20.407Z,22.42
2022-11-05T01:58:23.967Z,22.43
2022-11-05T01:59:27.654Z,22.40
2022-11-05T02:00:31.257Z,22.42
2022-11-05T02:01:34.860Z,22.42
2022-11-05T02:02:38.633Z,22.43
2022-11-05T02:03:42.345Z,22.45
2022-11-05T02:04:45.991Z,22.43
2022-11-05T02:05:49.510Z,22.45
2022-11-05T02:06:53.107Z,22.46
2022-11-05T02:07:56.715Z,22.47
2022-11-05T02:09:00.270Z,22.46
2022-11-05T02:10:03.918Z,22.45
2022-11-05T02:11:07.546Z,22.45
2022-11-05T02:12:11.072Z,22.47
2022-11-05T02:13:14.627Z,22.43
2022-11-05T02:14:18.253Z,22.45
2022-11-05T02:15:21.807Z,22.47
2022-11-05T02:16:25.333Z,22.45
2022-11-05T02:17:29.028Z,22.47
2022-11-05T02:18:32.617Z,22.46
2022-11-05T02:19:36.106Z,22.45
2022-11-05T02:20:39.681Z,22.47
2022-11-05T02:21:43.378Z,22.46
2022-11-05T02:22:46.936Z,22.46
2022-11-05T02:23:50.444Z,22.46
2022-11-05T02:24:54.137Z,22.46
2022-11-05T02:25:57.866Z,22.47
2022-11-05T02:27:01.428Z,22.47
2022-11-05T02:28:04.939Z,22.45
2022-11-05T02:29:08.568Z,22.47
2022-11-05T02:30:12.172Z,22.46
2022-11-05T02:31:15.678Z,22.46
2022-11-05T02:32:19.245Z,22.47
2022-11-05T02:33:22.874Z,22.45
2022-11-05T02:34:26.399Z,22.45
2022-11-05T02:35:29.933Z,22.46
2022-11-05T02:36:33.583Z,22.46
2022-11-05T02:37:37.143Z,22.45
2022-11-05T02:38:40.670Z,22.45
2022-11-05T02:39:44.365Z,22.45
2022-11-05T02:40:48.626Z,22.45
2022-11-05T02:41:52.269Z,22.42
2022-11-05T02:42:55.801Z,22.45
2022-11-05T02:43:59.428Z,22.45
2022-11-05T02:45:03.060Z,22.43
2022-11-05T02:46:06.617Z,22.42
2022-11-05T02:47:14.086Z,22.46
2022-11-05T02:48:13.108Z,22.46
2022-11-05T02:49:16.665Z,22.45
2022-11-05T02:50:20.304Z,22.45
2022-11-05T02:51:23.897Z,22.45
2022-11-05T02:52:27.436Z,22.46
2022-11-05T02:53:31.061Z,22.45
2022-11-05T02:54:34.701Z,22.46
2022-11-05T02:55:38.254Z,22.45
2022-11-05T02:56:41.872Z,22.43
2022-11-05T02:57:45.536Z,22.46
2022-11-05T02:58:49.129Z,22.43
2022-11-05T02:59:52.624Z,22.43
2022-11-05T03:00:56.232Z,22.46
2022-11-05T03:02:00.057Z,22.45
2022-11-05T03:03:03.833Z,22.45
2022-11-05T03:04:07.416Z,22.42
2022-11-05T03:05:11.020Z,22.45
2022-11-05T03:06:14.652Z,22.43
2022-11-05T03:07:18.175Z,22.42
2022-11-05T03:08:21.742Z,22.40
2022-11-05T03:09:25.368Z,22.42
2022-11-05T03:10:28.929Z,22.43
2022-11-05T03:11:32.445Z,22.42
2022-11-05T03:12:36.095Z,22.42
2022-11-05T03:13:39.702Z,22.43
2022-11-05T03:14:43.194Z,22.43
2022-11-05T03:15:46.782Z,22.42
2022-11-05T03:16:50.416Z,22.42
2022-11-05T03:17:53.939Z,22.42
2022-11-05T03:18:57.496Z,22.42
2022-11-05T03:20:01.131Z,22.43
2022-11-05T03:21:04.735Z,22.43
2022-11-05T03:22:08.226Z,22.42
2022-11-05T03:23:12.429Z,22.43
2022-11-05T03:24:16.288Z,22.40
2022-11-05T03:25:19.992Z,22.43
2022-11-05T03:26:23.578Z,22.42
2022-11-05T03:27:27.146Z,22.43
2022-11-05T03:28:30.843Z,22.42
2022-11-05T03:29:34.562Z,22.43
2022-11-05T03:30:38.094Z,22.42
2022-11-05T03:31:41.692Z,22.43
2022-11-05T03:32:45.359Z,22.45
2022-11-05T03:33:48.923Z,22.45
2022-11-05T03:34:52.468Z,22.43
2022-11-05T03:35:56.069Z,22.45
2022-11-05T03:36:59.689Z,22.45
2022-11-05T03:38:03.178Z,22.45
2022-11-05T03:39:06.738Z,22.42
2022-11-05T03:40:10.420Z,22.45
2022-11-05T03:41:13.974Z,22.45
2022-11-05T03:42:17.500Z,22.42
2022-11-05T03:43:21.134Z,22.42
2022-11-05T03:44:24.794Z,22.43
2022-11-05T03:45:28.413Z,22.43
2022-11-05T03:46:31.993Z,22.42
2022-11-05T03:47:35.627Z,22.42
2022-11-05T03:48:39.238Z,22.43
2022-11-05T03:49:42.891Z,22.42
2022-11-05T03:50:46.571Z,22.42
2022-11-05T03:51:50.173Z,22.42
2022-11-05T03:52:53.709Z,22.43
2022-11-05T03:53:57.354Z,22.42
2022-11-05T03:55:00.983Z,22.45
2022-11-05T03:56:04.486Z,22.42
2022-11-05T03:57:08.073Z,22.45
2022-11-05T03:58:11.741Z,22.43
2022-11-05T03:59:15.269Z,22.45
2022-11-05T04:00:18.818Z,22.46
2022-11-05T04:01:22.559Z,22.42
2022-11-05T04:02:26.477Z,22.43
2022-11-05T04:03:30.110Z,22.46
2022-11-05T04:04:33.632Z,22.46
2022-11-05T04:05:37.294Z,22.42
2022-11-05T04:06:40.870Z,22.46
2022-11-05T04:07:44.372Z,22.46
2022-11-05T04:08:48.011Z,22.45
2022-11-05T04:09:51.609Z,22.42
2022-11-05T04:10:55.135Z,22.42
2022-11-05T04:11:58.749Z,22.45
2022-11-05T04:13:02.387Z,22.45
2022-11-05T04:14:05.915Z,22.45
2022-11-05T04:15:09.474Z,22.45
2022-11-05T04:16:13.157Z,22.43
2022-11-05T04:17:16.735Z,22.46
2022-11-05T04:18:20.259Z,22.45
2022-11-05T04:19:26.247Z,22.45
2022-11-05T04:20:27.380Z,22.45
2022-11-05T04:21:30.971Z,22.42
2022-11-05T04:22:34.675Z,22.45
2022-11-05T04:23:38.302Z,22.43
2022-11-05T04:24:41.836Z,22.45
2022-11-05T04:25:45.468Z,22.45
2022-11-05T04:26:49.135Z,22.43
2022-11-05T04:27:52.678Z,22.45
2022-11-05T04:28:56.219Z,22.43
2022-11-05T04:29:59.884Z,22.42
2022-11-05T04:31:03.472Z,22.43
2022-11-05T04:32:07.016Z,22.43
2022-11-05T04:33:11.080Z,22.45
2022-11-05T04:34:14.951Z,22.43
2022-11-05T04:35:18.542Z,22.45
2022-11-05T04:36:22.068Z,22.45
2022-11-05T04:37:25.662Z,22.43
2022-11-05T04:38:29.304Z,22.42
2022-11-05T04:39:32.887Z,22.43
2022-11-05T04:40:36.523Z,22.45
2022-11-05T04:41:40.204Z,22.43
2022-11-05T04:42:43.798Z,22.42
2022-11-05T04:43:47.372Z,22.43
2022-11-05T04:44:51.032Z,22.42
2022-11-05T04:45:54.656Z,22.43
2022-11-05T04:46:58.180Z,22.43
2022-11-05T04:48:01.805Z,22.43
2022-11-05T04:49:05.482Z,22.43
2022-11-05T04:50:09.039Z,22.42
2022-11-05T04:51:12.600Z,22.42
2022-11-05T04:52:16.300Z,22.43
2022-11-05T04:53:19.868Z,22.43
2022-11-05T04:54:23.432Z,22.40
2022-11-05T04:55:27.026Z,22.43
2022-11-05T04:56:30.720Z,22.42
2022-11-05T04:57:34.244Z,22.42
2022-11-05T04:58:37.808Z,22.42
2022-11-05T04:59:41.520Z,22.42
2022-11-05T05:00:45.186Z,22.40
2022-11-05T05:01:48.792Z,22.40
2022-11-05T05:02:52.440Z,22.39
2022-11-05T05:03:56.130Z,22.42
2022-11-05T05:04:59.803Z,22.42
2022-11-05T05:06:04.208Z,22.43
2022-11-05T05:07:07.876Z,22.42
2022-11-05T05:08:11.506Z,22.43
2022-11-05T05:09:15.217Z,22.40
2022-11-05T05:10:18.756Z,22.42
2022-11-05T05:11:22.313Z,22.39
2022-11-05T05:12:25.967Z,22.40
2022-11-05T05:13:29.493Z,22.40
2022-11-05T05:14:33.047Z,22.42
2022-11-05T05:15:36.689Z,22.40
2022-11-05T05:16:40.214Z,22.40
2022-11-05T05:17:43.806Z,22.42
2022-11-05T05:18:47.469Z,22.42
2022-11-05T05:19:51.049Z,22.40
2022-11-05T05:20:54.618Z,22.43
2022-11-05T05:21:58.218Z,22.43
2022-11-05T05:23:01.845Z,22.43
2022-11-05T05:24:05.335Z,22.40
2022-11-05T05:25:08.962Z,22.43
2022-11-05T05:26:12.674Z,22.42
2022-11-05T05:27:16.165Z,22.42
2022-11-05T05:28:19.785Z,22.40
2022-11-05T05:29:23.446Z,22.42
2022-11-05T05:30:27.030Z,22.43
2022-11-05T05:31:30.576Z,22.42
2022-11-05T05:32:34.237Z,22.42
2022-11-05T05:33:37.874Z,22.42
2022-11-05T05:34:41.420Z,22.43
2022-11-05T05:35:45.071Z,22.40
2022-11-05T05:36:48.756Z,22.39
2022-11-05T05:37:52.285Z,22.43
2022-11-05T05:38:55.875Z,22.42
2022-11-05T05:39:59.509Z,22.40
2022-11-05T05:41:03.073Z,22.43
2022-11-05T05:42:06.691Z,22.43
2022-11-05T05:43:10.713Z,22.43
2022-11-05T05:44:14.502Z,22.42
2022-11-05T05:45:18.132Z,22.42
2022-11-05T05:46:21.697Z,22.40
2022-11-05T05:47:25.354Z,22.40
2022-11-05T05:48:28.990Z,22.40
2022-11-05T05:49:32.547Z,22.39
2022-11-05T05:50:36.112Z,22.40
2022-11-05T05:51:39.834Z,22.40
2022-11-05T05:52:43.409Z,22.40
2022-11-05T05:53:46.930Z,22.40
2022-11-05T05:54:50.559Z,22.40
2022-11-05T05:55:54.155Z,22.39
2022-11-05T05:56:57.689Z,22.39
2022-11-05T05:58:01.332Z,22.37
2022-11-05T05:59:04.893Z,22.36
2022-11-05T06:00:08.415Z,22.39
2022-11-05T06:01:18.231Z,22.39
2022-11-05T06:02:15.226Z,22.37
2022-11-05T06:03:18.883Z,22.39
2022-11-05T06:04:22.548Z,22.37
2022-11-05T06:05:26.072Z,22.39
2022-11-05T06:06:29.671Z,22.36
2022-11-05T06:07:37.269Z,22.36
2022-11-05T06:08:37.211Z,22.37
2022-11-05T06:09:40.741Z,22.37
2022-11-05T06:10:44.417Z,22.36
2022-11-05T06:11:48.148Z,22.36
2022-11-05T06:12:51.674Z,22.33
2022-11-05T06:13:55.218Z,22.36
2022-11-05T06:14:58.893Z,22.36
2022-11-05T06:16:02.460Z,22.35
2022-11-05T06:17:06.024Z,22.35
2022-11-05T06:18:09.655Z,22.35
2022-11-05T06:19:13.286Z,22.36
2022-11-05T06:20:16.780Z,22.36
2022-11-05T06:21:20.413Z,22.35
2022-11-05T06:22:24.008Z,22.33
2022-11-05T06:23:27.552Z,22.30
2022-11-05T06:24:31.127Z,22.30
2022-11-05T06:25:38.518Z,22.28
2022-11-05T06:26:39.676Z,22.27
2022-11-05T06:27:43.274Z,22.24
2022-11-05T06:28:46.771Z,22.28
2022-11-05T06:29:50.348Z,22.24
2022-11-05T06:30:54.020Z,22.24
2022-11-05T06:31:57.573Z,22.25
2022-11-05T06:33:01.165Z,22.24
2022-11-05T06:34:04.867Z,22.22
2022-11-05T06:35:08.430Z,22.22
2022-11-05T06:36:11.984Z,22.21
2022-11-05T06:37:15.644Z,22.21
2022-11-05T06:38:19.297Z,22.20
2022-11-05T06:39:22.912Z,22.20
2022-11-05T06:40:26.485Z,22.21
2022-11-05T06:41:30.113Z,22.20
2022-11-05T06:42:33.640Z,22.18
2022-11-05T06:43:37.203Z,22.20
2022-11-05T06:44:40.830Z,22.21
2022-11-05T06:45:44.400Z,22.21
2022-11-05T06:46:48.738Z,22.21
2022-11-05T06:47:52.384Z,22.21
2022-11-05T06:48:55.983Z,22.15
2022-11-05T06:49:59.621Z,22.14
2022-11-05T06:51:03.164Z,22.18
2022-11-05T06:52:06.784Z,22.15
2022-11-05T06:53:10.641Z,22.17
2022-11-05T06:54:14.464Z,22.14
2022-11-05T06:55:18.010Z,22.17
2022-11-05T06:56:21.694Z,22.12
2022-11-05T06:57:25.332Z,22.15
2022-11-05T06:58:28.893Z,22.12
2022-11-05T06:59:32.421Z,22.14
2022-11-05T07:00:36.149Z,22.15
2022-11-05T07:01:40.030Z,22.15
2022-11-05T07:02:43.583Z,22.18
2022-11-05T07:03:47.142Z,22.17
2022-11-05T07:04:50.880Z,22.21
2022-11-05T07:05:54.472Z,22.18
2022-11-05T07:06:58.070Z,22.21
2022-11-05T07:08:01.731Z,22.21
2022-11-05T07:09:05.294Z,22.22
2022-11-05T07:10:09.107Z,22.22
2022-11-05T07:11:12.697Z,22.22
2022-11-05T07:12:16.402Z,22.21
2022-11-05T07:13:19.961Z,22.21
2022-11-05T07:14:23.516Z,22.21
2022-11-05T07:15:27.171Z,22.21
2022-11-05T07:16:30.761Z,22.20
2022-11-05T07:17:34.305Z,22.21
2022-11-05T07:18:37.902Z,22.22
2022-11-05T07:19:41.534Z,22.21
2022-11-05T07:20:45.096Z,22.22
2022-11-05T07:21:48.679Z,22.21
2022-11-05T07:22:52.354Z,22.22
2022-11-05T07:23:55.913Z,22.25
2022-11-05T07:24:59.432Z,22.22
2022-11-05T07:26:03.064Z,22.24
2022-11-05T07:27:06.683Z,22.22
2022-11-05T07:28:10.199Z,22.24
2022-11-05T07:29:13.791Z,22.24
2022-11-05T07:30:17.424Z,22.22
2022-11-05T07:31:20.962Z,22.25
2022-11-05T07:32:24.520Z,22.25
2022-11-05T07:33:32.353Z,22.25
2022-11-05T07:34:31.389Z,22.22
2022-11-05T07:35:35.016Z,22.24
2022-11-05T07:36:38.653Z,22.25
2022-11-05T07:37:42.282Z,22.24
2022-11-05T07:38:45.786Z,22.25
2022-11-05T07:39:49.428Z,22.25
2022-11-05T07:40:53.059Z,22.25
2022-11-05T07:41:56.578Z,22.25
2022-11-05T07:43:00.163Z,22.24
2022-11-05T07:44:03.802Z,22.22
2022-11-05T07:45:07.426Z,22.24
2022-11-05T07:46:13.791Z,22.24
2022-11-05T07:47:15.045Z,22.24
2022-11-05T07:48:18.678Z,22.22
2022-11-05T07:49:22.314Z,22.24
2022-11-05T07:50:25.807Z,22.24
2022-11-05T07:51:29.441Z,22.24
2022-11-05T07:52:33.045Z,22.22
2022-11-05T07:53:39.747Z,22.22
2022-11-05T07:54:41.078Z,22.22
2022-11-05T07:55:44.673Z,22.25
2022-11-05T07:56:48.334Z,22.22
2022-11-05T07:57:51.934Z,22.24
2022-11-05T07:58:55.478Z,22.24
2022-11-05T07:59:59.129Z,22.25
2022-11-05T08:01:02.825Z,22.24
2022-11-05T08:02:06.565Z,22.24
2022-11-05T08:03:10.606Z,22.25
2022-11-05T08:04:14.309Z,22.25
2022-11-05T08:05:17.958Z,22.25
2022-11-05T08:06:21.485Z,22.27
2022-11-05T08:07:25.077Z,22.24
2022-11-05T08:08:28.705Z,22.24
2022-11-05T08:09:32.295Z,22.24
2022-11-05T08:10:35.851Z,22.28
2022-11-05T08:11:39.509Z,22.24
2022-11-05T08:12:43.111Z,22.24
2022-11-05T08:13:46.608Z,22.25
2022-11-05T08:14:50.400Z,22.28
2022-11-05T08:15:54.090Z,22.27
2022-11-05T08:16:57.619Z,22.25
2022-11-05T08:18:01.181Z,22.25
2022-11-05T08:19:04.868Z,22.28
2022-11-05T08:20:08.461Z,22.30
2022-11-05T08:21:12.039Z,22.30
2022-11-05T08:22:15.713Z,22.27
2022-11-05T08:23:19.373Z,22.30
2022-11-05T08:24:22.913Z,22.30
2022-11-05T08:25:26.537Z,22.30
2022-11-05T08:26:30.246Z,22.31
2022-11-05T08:27:33.800Z,22.30
2022-11-05T08:28:37.395Z,22.27
2022-11-05T08:29:41.097Z,22.33
2022-11-05T08:30:44.717Z,22.35
2022-11-05T08:31:48.278Z,22.33
2022-11-05T08:32:51.939Z,22.33
2022-11-05T08:34:01.307Z,22.36
2022-11-05T08:34:58.404Z,22.39
2022-11-05T08:36:02.040Z,22.39
2022-11-05T08:37:05.584Z,22.39
2022-11-05T08:38:09.125Z,22.39
2022-11-05T08:39:16.833Z,22.37
2022-11-05T08:40:15.673Z,22.39
2022-11-05T08:41:19.326Z,22.42
2022-11-05T08:42:22.967Z,22.40
2022-11-05T08:43:26.499Z,22.43
2022-11-05T08:44:30.028Z,22.43
2022-11-05T08:45:33.664Z,22.42
2022-11-05T08:46:41.402Z,22.43
2022-11-05T08:47:40.220Z,22.45
2022-11-05T08:48:43.841Z,22.46
2022-11-05T08:49:47.343Z,22.45
2022-11-05T08:50:50.937Z,22.46
2022-11-05T08:51:54.568Z,22.43
2022-11-05T08:52:58.130Z,22.45
2022-11-05T08:54:01.654Z,22.45
2022-11-05T08:55:05.297Z,22.45
2022-11-05T08:56:08.823Z,22.47
2022-11-05T08:57:12.422Z,22.46
2022-11-05T08:58:16.134Z,22.47
2022-11-05T08:59:19.872Z,22.49
2022-11-05T09:00:23.363Z,22.51
2022-11-05T09:01:27.059Z,22.47
2022-11-05T09:02:30.963Z,22.47
2022-11-05T09:03:34.640Z,22.49
2022-11-05T09:04:38.132Z,22.49
2022-11-05T09:05:41.720Z,22.52
2022-11-05T09:06:45.354Z,22.51
2022-11-05T09:07:48.883Z,22.51
2022-11-05T09:08:52.420Z,22.49
2022-11-05T09:09:56.053Z,22.54
2022-11-05T09:10:59.688Z,22.52
2022-11-05T09:12:12.435Z,22.52
2022-11-05T09:13:06.515Z,22.55
2022-11-05T09:14:10.184Z,22.55
2022-11-05T09:15:13.687Z,22.55
2022-11-05T09:16:17.285Z,22.58
2022-11-05T09:17:20.923Z,22.57
2022-11-05T09:18:24.504Z,22.55
2022-11-05T09:19:28.097Z,22.55
2022-11-05T09:20:31.727Z,22.55
2022-11-05T09:21:35.349Z,22.57
2022-11-05T09:22:43.112Z,22.57
2022-11-05T09:23:42.097Z,22.55
2022-11-05T09:24:45.676Z,22.57
2022-11-05T09:25:49.181Z,22.58
2022-11-05T09:26:52.800Z,22.58
2022-11-05T09:27:56.390Z,22.58
2022-11-05T09:28:59.882Z,22.57
2022-11-05T09:30:03.496Z,22.57
2022-11-05T09:31:07.188Z,22.57
2022-11-05T09:32:10.813Z,22.57
2022-11-05T09:33:14.552Z,22.58
2022-11-05T09:34:18.244Z,22.58
2022-11-05T09:35:21.890Z,22.57
2022-11-05T09:36:25.441Z,22.58
2022-11-05T09:37:28.968Z,22.58
2022-11-05T09:38:32.595Z,22.57
2022-11-05T09:39:36.203Z,22.57
2022-11-05T09:40:39.718Z,22.55
2022-11-05T09:41:43.359Z,22.57
2022-11-05T09:42:47.049Z,22.58
2022-11-05T09:43:50.576Z,22.57
2022-11-05T09:44:54.101Z,22.57
2022-11-05T09:45:57.778Z,22.55
2022-11-05T09:47:01.333Z,22.55
2022-11-05T09:48:04.887Z,22.55
2022-11-05T09:49:08.545Z,22.57
2022-11-05T09:50:12.233Z,22.57
2022-11-05T09:51:20.783Z,22.57
2022-11-05T09:52:19.593Z,22.54
2022-11-05T09:53:23.194Z,22.57
2022-11-05T09:54:26.805Z,22.55
2022-11-05T09:55:30.297Z,22.54
2022-11-05T09:56:33.939Z,22.54
2022-11-05T09:57:37.600Z,22.54
2022-11-05T09:58:41.322Z,22.55
2022-11-05T09:59:44.866Z,22.51
2022-11-05T10:00:48.602Z,22.54
2022-11-05T10:01:52.537Z,22.54
2022-11-05T10:02:56.305Z,22.55
2022-11-05T10:03:59.833Z,22.54
2022-11-05T10:05:09.177Z,22.54
2022-11-05T10:06:08.430Z,22.52
2022-11-05T10:07:12.011Z,22.54
2022-11-05T10:08:15.667Z,22.52
2022-11-05T10:09:19.194Z,22.52
2022-11-05T10:10:22.754Z,22.54
2022-11-05T10:11:26.415Z,22.54
2022-11-05T10:12:29.991Z,22.52
2022-11-05T10:13:33.526Z,22.55
2022-11-05T10:14:37.188Z,22.52
2022-11-05T10:15:40.812Z,22.51
2022-11-05T10:16:44.346Z,22.54
2022-11-05T10:17:47.985Z,22.52
2022-11-05T10:18:51.624Z,22.49
2022-11-05T10:19:55.145Z,22.54
2022-11-05T10:20:58.706Z,22.52
2022-11-05T10:22:07.152Z,22.51
2022-11-05T10:23:05.968Z,22.51
2022-11-05T10:24:09.493Z,22.52
2022-11-05T10:25:13.146Z,22.52
2022-11-05T10:26:16.738Z,22.52
2022-11-05T10:27:20.233Z,22.52
2022-11-05T10:28:23.828Z,22.55
2022-11-05T10:29:27.472Z,22.54
2022-11-05T10:30:31.012Z,22.51
2022-11-05T10:31:35.666Z,22.54
2022-11-05T10:32:39.350Z,22.52
2022-11-05T10:33:42.949Z,22.54
2022-11-05T10:34:46.581Z,22.52
2022-11-05T10:35:50.237Z,22.52
2022-11-05T10:36:53.732Z,22.52
2022-11-05T10:37:57.326Z,22.51
2022-11-05T10:39:01.029Z,22.55
2022-11-05T10:40:04.591Z,22.52
2022-11-05T10:41:08.088Z,22.54
2022-11-05T10:42:11.705Z,22.51
2022-11-05T10:43:15.333Z,22.52
2022-11-05T10:44:19.184Z,22.52
2022-11-05T10:45:22.724Z,22.52
2022-11-05T10:46:26.292Z,22.52
2022-11-05T10:47:29.922Z,22.52
2022-11-05T10:48:33.515Z,22.51
2022-11-05T10:49:37.032Z,22.51
2022-11-05T10:50:40.651Z,22.52
2022-11-05T10:51:44.240Z,22.52
2022-11-05T10:52:47.734Z,22.52
2022-11-05T10:53:51.379Z,22.54
2022-11-05T10:54:55.014Z,22.54
2022-11-05T10:55:58.521Z,22.52
2022-11-05T10:57:02.117Z,22.54
2022-11-05T10:58:05.812Z,22.54
2022-11-05T10:59:12.212Z,22.55
2022-11-05T11:00:13.427Z,22.55
2022-11-05T11:01:17.132Z,22.55
2022-11-05T11:02:21.014Z,22.54
2022-11-05T11:03:24.713Z,22.54
2022-11-05T11:04:30.357Z,22.54
2022-11-05T11:05:32.114Z,22.52
2022-11-05T11:06:35.739Z,22.54
2022-11-05T11:07:39.344Z,22.52
2022-11-05T11:08:42.895Z,22.55
2022-11-05T11:09:46.516Z,22.54
2022-11-05T11:10:50.219Z,22.52
2022-11-05T11:11:53.781Z,22.55
2022-11-05T11:12:57.278Z,22.55
2022-11-05T11:14:00.879Z,22.54
2022-11-05T11:15:04.477Z,22.52
2022-11-05T11:16:07.978Z,22.51
2022-11-05T11:17:11.543Z,22.55
2022-11-05T11:18:15.207Z,22.55
2022-11-05T11:19:18.901Z,22.57
2022-11-05T11:20:22.390Z,22.54
2022-11-05T11:21:26.059Z,22.54
2022-11-05T11:22:29.682Z,22.55
2022-11-05T11:23:33.205Z,22.55
2022-11-05T11:24:36.843Z,22.55
2022-11-05T11:25:40.498Z,22.57
2022-11-05T11:26:44.049Z,22.55
2022-11-05T11:27:47.606Z,22.57
2022-11-05T11:28:51.300Z,22.57
2022-11-05T11:29:54.891Z,22.57
2022-11-05T11:30:58.425Z,22.58
2022-11-05T11:32:02.071Z,22.60
2022-11-05T11:33:05.693Z,22.57
2022-11-05T11:34:09.219Z,22.57
2022-11-05T11:35:12.788Z,22.57
2022-11-05T11:36:16.426Z,22.58
2022-11-05T11:37:20.021Z,22.58
2022-11-05T11:38:23.579Z,22.58
2022-11-05T11:39:27.220Z,22.58
2022-11-05T11:40:30.778Z,22.58
2022-11-05T11:41:34.329Z,22.54
2022-11-05T11:42:37.997Z,22.58
2022-11-05T11:43:41.592Z,22.57
2022-11-05T11:44:45.113Z,22.57
2022-11-05T11:45:48.729Z,22.58
2022-11-05T11:46:52.387Z,22.57
2022-11-05T11:47:55.962Z,22.60
2022-11-05T11:48:59.529Z,22.60
2022-11-05T11:50:03.167Z,22.58
2022-11-05T11:51:06.759Z,22.60
2022-11-05T11:52:10.259Z,22.58
2022-11-05T11:53:14.088Z,22.58
2022-11-05T11:54:17.907Z,22.58
2022-11-05T11:55:21.496Z,22.60
2022-11-05T11:56:25.065Z,22.55
2022-11-05T11:57:28.748Z,22.55
2022-11-05T11:58:32.363Z,22.57
2022-11-05T12:00:02.371Z,22.57
2022-11-05T12:00:40.306Z,22.57
2022-11-05T12:01:43.932Z,22.57
2022-11-05T12:02:47.706Z,22.58
2022-11-05T12:03:51.385Z,22.57
2022-11-05T12:04:54.967Z,22.58
2022-11-05T12:05:58.588Z,22.61
2022-11-05T12:07:02.260Z,22.60
2022-11-05T12:08:05.870Z,22.57
2022-11-05T12:09:09.380Z,22.58
2022-11-05T12:10:12.977Z,22.58
2022-11-05T12:11:16.601Z,22.61
2022-11-05T12:12:20.095Z,22.58
2022-11-05T12:13:23.751Z,22.61
2022-11-05T12:14:27.421Z,22.60
2022-11-05T12:15:30.942Z,22.58
2022-11-05T12:16:34.529Z,22.60
2022-11-05T12:17:38.172Z,22.60
2022-11-05T12:18:41.753Z,22.60
2022-11-05T12:19:45.325Z,22.58
2022-11-05T12:20:52.719Z,22.58
2022-11-05T12:21:53.940Z,22.58
2022-11-05T12:22:57.531Z,22.61
2022-11-05T12:24:01.161Z,22.62
2022-11-05T12:25:04.675Z,22.60
2022-11-05T12:26:08.268Z,22.60
2022-11-05T12:27:11.898Z,22.62
2022-11-05T12:28:15.466Z,22.61
2022-11-05T12:29:19.683Z,22.62
2022-11-05T12:30:23.341Z,22.65
2022-11-05T12:31:27.036Z,22.62
2022-11-05T12:32:30.700Z,22.61
2022-11-05T12:33:34.213Z,22.64
2022-11-05T12:34:37.842Z,22.62
2022-11-05T12:35:46.728Z,22.65
2022-11-05T12:36:44.146Z,22.62
2022-11-05T12:37:47.776Z,22.62
2022-11-05T12:38:51.305Z,22.65
2022-11-05T12:39:54.924Z,22.64
2022-11-05T12:40:58.604Z,22.65
2022-11-05T12:42:02.196Z,22.64
2022-11-05T12:43:11.431Z,22.62
2022-11-05T12:44:10.333Z,22.64
2022-11-05T12:45:13.953Z,22.62
2022-11-05T12:46:17.601Z,22.64
2022-11-05T12:47:21.183Z,22.64
2022-11-05T12:48:29.240Z,22.64
2022-11-05T12:49:27.712Z,22.65
2022-11-05T12:50:31.210Z,22.62
2022-11-05T12:51:34.857Z,22.64
2022-11-05T12:52:38.460Z,22.65
2022-11-05T12:53:41.986Z,22.64
2022-11-05T12:54:45.577Z,22.65
2022-11-05T12:55:49.206Z,22.65
2022-11-05T12:56:52.744Z,22.67
2022-11-05T12:57:56.370Z,22.67
2022-11-05T12:59:00.026Z,22.64
2022-11-05T13:00:03.589Z,22.64
2022-11-05T13:01:07.161Z,22.65
2022-11-05T13:02:10.980Z,22.64
2022-11-05T13:03:15.016Z,22.65
2022-11-05T13:04:18.789Z,22.65
2022-11-05T13:05:22.315Z,22.67
2022-11-05T13:06:25.917Z,22.65
2022-11-05T13:07:29.602Z,22.68
2022-11-05T13:08:33.166Z,22.64
2022-11-05T13:09:36.654Z,22.68
2022-11-05T13:10:40.288Z,22.67
2022-11-05T13:11:43.914Z,22.68
2022-11-05T13:12:47.480Z,22.67
2022-11-05T13:13:51.066Z,22.67
2022-11-05T13:14:54.663Z,22.67
2022-11-05T13:15:58.189Z,22.67
2022-11-05T13:17:01.768Z,22.67
2022-11-05T13:18:05.458Z,22.67
2022-11-05T13:19:08.987Z,22.67
2022-11-05T13:20:17.145Z,22.68
2022-11-05T13:21:16.251Z,22.67
2022-11-05T13:22:19.816Z,22.65
2022-11-05T13:23:23.323Z,22.68
2022-11-05T13:24:26.919Z,22.70
2022-11-05T13:25:30.516Z,22.65
2022-11-05T13:26:34.011Z,22.68
2022-11-05T13:27:37.639Z,22.65
2022-11-05T13:28:41.283Z,22.68
2022-11-05T13:29:44.843Z,22.68
2022-11-05T13:30:48.431Z,22.68
2022-11-05T13:31:52.066Z,22.68
2022-11-05T13:32:55.653Z,22.68
2022-11-05T13:33:59.214Z,22.68
2022-11-05T13:35:02.883Z,22.68
2022-11-05T13:36:06.500Z,22.70
2022-11-05T13:37:10.052Z,22.72
2022-11-05T13:38:13.650Z,22.68
2022-11-05T13:39:17.321Z,22.70
2022-11-05T13:40:20.850Z,22.68